createdAt,value
2023-04-11T00:01:49.575Z,25.77
2023-04-11T00:04:17.504Z,25.37
2023-04-11T00:06:44.761Z,31.52
2023-04-11T00:09:12.292Z,26.73
2023-04-11T00:11:39.790Z,27.33
2023-04-11T00:14:09.020Z,26.30
2023-04-11T00:16:36.756Z,26.73
2023-04-11T00:19:04.753Z,26.52
2023-04-11T00:21:31.972Z,24.25
2023-04-11T00:23:59.209Z,27.05
2023-04-11T00:26:27.270Z,29.40
2023-04-11T00:28:54.826Z,29.37
2023-04-11T00:31:22.242Z,27.20
2023-04-11T00:33:49.769Z,23.00
2023-04-11T00:36:17.061Z,28.87
2023-04-11T00:38:44.827Z,28.92
2023-04-11T00:41:12.449Z,30.05
2023-04-11T00:43:39.684Z,27.58
2023-04-11T00:46:09.165Z,36.38
2023-04-11T00:48:37.110Z,25.35
2023-04-11T00:51:04.346Z,26.55
2023-04-11T00:53:32.747Z,30.40
2023-04-11T00:56:00.834Z,31.12
2023-04-11T00:58:28.831Z,31.20
2023-04-11T01:00:56.067Z,26.62
2023-04-11T01:03:23.809Z,23.95
2023-04-11T01:05:54.602Z,27.42
2023-04-11T01:08:22.714Z,27.60
2023-04-11T01:10:50.316Z,29.33
2023-04-11T01:13:20.455Z,27.87
2023-04-11T01:15:47.732Z,25.95
2023-04-11T01:18:15.581Z,27.10
2023-04-11T01:20:42.858Z,23.23
2023-04-11T01:23:11.004Z,23.30
2023-04-11T01:25:38.664Z,20.27
2023-04-11T01:28:08.728Z,21.70
2023-04-11T01:30:36.012Z,22.15
2023-04-11T01:33:03.667Z,25.25
2023-04-11T01:35:31.065Z,23.20
2023-04-11T01:37:59.166Z,23.62
2023-04-11T01:40:27.947Z,24.12
2023-04-11T01:42:55.339Z,24.10
2023-04-11T01:45:22.620Z,24.17
2023-04-11T01:47:51.412Z,25.12
2023-04-11T01:50:18.657Z,26.42
2023-04-11T01:52:47.796Z,27.20
2023-04-11T01:55:15.726Z,27.25
2023-04-11T01:57:43.068Z,25.65
2023-04-11T02:00:11.121Z,25.35
2023-04-11T02:02:41.639Z,27.98
2023-04-11T02:05:10.886Z,29.55
2023-04-11T02:07:38.226Z,25.62
2023-04-11T02:10:06.224Z,30.75
2023-04-11T02:12:33.840Z,31.52
2023-04-11T02:15:00.996Z,27.60
2023-04-11T02:17:31.163Z,29.05
2023-04-11T02:19:58.841Z,34.00
2023-04-11T02:22:26.147Z,35.25
2023-04-11T02:24:53.339Z,37.95
2023-04-11T02:27:20.879Z,35.28
2023-04-11T02:29:48.050Z,37.60
2023-04-11T02:32:16.268Z,37.25
2023-04-11T02:34:45.786Z,38.78
2023-04-11T02:37:13.014Z,40.92
2023-04-11T02:39:40.348Z,38.50
2023-04-11T02:42:07.869Z,36.88
2023-04-11T02:44:35.067Z,37.17
2023-04-11T02:47:02.549Z,32.92
2023-04-11T02:49:30.511Z,38.65
2023-04-11T02:51:58.659Z,32.15
2023-04-11T02:54:25.916Z,37.95
2023-04-11T02:56:55.847Z,35.72
2023-04-11T02:59:23.377Z,30.35
2023-04-11T03:01:50.775Z,36.05
2023-04-11T03:04:18.516Z,32.88
2023-04-11T03:06:46.874Z,45.88
2023-04-11T03:09:14.273Z,51.80
2023-04-11T03:11:42.018Z,54.83
2023-04-11T03:14:09.424Z,51.65
2023-04-11T03:16:36.753Z,54.72
2023-04-11T03:19:05.873Z,39.25
2023-04-11T03:21:33.154Z,41.83
2023-04-11T03:24:00.474Z,35.70
2023-04-11T03:26:27.963Z,35.47
2023-04-11T03:28:56.658Z,38.67
2023-04-11T03:31:24.267Z,40.60
2023-04-11T03:33:54.461Z,50.60
2023-04-11T03:36:27.066Z,52.10
2023-04-11T03:38:55.213Z,54.65
2023-04-11T03:41:22.702Z,53.20
2023-04-11T03:43:50.364Z,49.05
2023-04-11T03:46:19.793Z,49.08
2023-04-11T03:48:47.343Z,47.67
2023-04-11T03:51:14.715Z,41.17
2023-04-11T03:53:42.918Z,49.00
2023-04-11T03:56:12.274Z,40.10
2023-04-11T03:58:39.513Z,49.53
2023-04-11T04:01:07.132Z,39.70
2023-04-11T04:03:35.111Z,45.03
2023-04-11T04:06:02.733Z,37.10
2023-04-11T04:08:30.148Z,37.78
2023-04-11T04:10:57.646Z,35.42
2023-04-11T04:13:25.283Z,42.13
2023-04-11T04:15:52.827Z,30.65
2023-04-11T04:18:21.846Z,34.38
2023-04-11T04:20:49.451Z,44.13
2023-04-11T04:23:18.144Z,43.00
2023-04-11T04:25:50.657Z,31.90
2023-04-11T04:30:54.065Z,30.45
2023-04-11T04:33:22.181Z,35.65
2023-04-11T04:35:51.645Z,49.20
2023-04-11T04:38:19.408Z,67.32
2023-04-11T04:40:50.526Z,67.57
2023-04-11T04:43:22.351Z,99.05
2023-04-11T04:45:50.760Z,51.92
2023-04-11T04:48:18.651Z,53.53
2023-04-11T04:50:46.027Z,50.15
2023-04-11T04:53:13.701Z,47.08
2023-04-11T04:55:43.618Z,30.45
2023-04-11T04:58:11.220Z,28.42
2023-04-11T05:00:40.193Z,29.25
2023-04-11T05:03:10.915Z,32.38
2023-04-11T05:05:38.357Z,34.35
2023-04-11T05:08:05.660Z,45.28
2023-04-11T05:10:33.538Z,50.08
2023-04-11T05:13:00.962Z,72.70
2023-04-11T05:15:28.144Z,58.83
2023-04-11T05:17:55.637Z,66.20
2023-04-11T05:20:24.744Z,55.75
2023-04-11T05:22:53.531Z,59.78
2023-04-11T05:25:21.602Z,69.35
2023-04-11T05:27:49.249Z,45.30
2023-04-11T05:30:17.897Z,39.05
2023-04-11T05:32:47.744Z,46.47
2023-04-11T05:35:15.442Z,40.70
2023-04-11T05:37:43.395Z,38.85
2023-04-11T05:40:11.078Z,34.95
2023-04-11T05:42:38.342Z,34.40
2023-04-11T05:45:06.384Z,41.95
2023-04-11T05:47:33.870Z,34.80
2023-04-11T05:50:01.027Z,31.35
2023-04-11T05:52:28.182Z,32.53
2023-04-11T05:54:55.977Z,32.60
2023-04-11T05:57:23.574Z,30.50
2023-04-11T05:59:53.033Z,31.00
2023-04-11T06:02:21.580Z,39.03
2023-04-11T06:04:49.097Z,34.08
2023-04-11T06:07:16.716Z,32.95
2023-04-11T06:09:44.329Z,45.65
2023-04-11T06:12:11.728Z,28.65
2023-04-11T06:14:40.637Z,31.50
2023-04-11T06:17:07.939Z,31.85
2023-04-11T06:19:35.343Z,35.10
2023-04-11T06:22:02.428Z,35.55
2023-04-11T06:24:40.230Z,43.47
2023-04-11T06:27:10.852Z,30.45
2023-04-11T06:29:38.666Z,38.80
2023-04-11T06:32:06.580Z,40.47
2023-04-11T06:34:34.491Z,40.83
2023-04-11T06:37:01.757Z,33.53
2023-04-11T06:39:28.946Z,30.73
2023-04-11T06:41:56.614Z,41.42
2023-04-11T06:44:24.216Z,31.62
2023-04-11T06:46:51.545Z,35.58
2023-04-11T06:49:19.209Z,31.65
2023-04-11T06:51:49.173Z,32.28
2023-04-11T06:54:17.377Z,34.75
2023-04-11T06:56:44.977Z,32.92
2023-04-11T06:59:12.199Z,32.00
2023-04-11T07:01:40.056Z,28.17
2023-04-11T07:04:08.265Z,35.35
2023-04-11T07:06:35.942Z,34.20
2023-04-11T07:09:06.528Z,31.23
2023-04-11T07:11:34.032Z,28.12
2023-04-11T07:14:02.003Z,37.13
2023-04-11T07:16:29.182Z,29.05
2023-04-11T07:18:57.089Z,29.27
2023-04-11T07:21:24.314Z,26.67
2023-04-11T07:23:52.755Z,25.83
2023-04-11T07:26:20.231Z,23.50
2023-04-11T07:28:47.915Z,50.58
2023-04-11T07:31:15.338Z,25.62
2023-04-11T07:33:43.424Z,35.28
2023-04-11T07:36:11.037Z,23.73
2023-04-11T07:38:39.026Z,34.58
2023-04-11T07:41:06.825Z,24.75
2023-04-11T07:43:34.041Z,18.45
2023-04-11T07:46:01.749Z,18.30
2023-04-11T07:48:30.570Z,47.33
2023-04-11T07:50:57.864Z,25.02
2023-04-11T07:53:25.140Z,19.92
2023-04-11T07:55:52.678Z,20.77
2023-04-11T07:58:19.913Z,26.85
2023-04-11T08:00:47.642Z,24.17
2023-04-11T08:03:16.905Z,22.35
2023-04-11T08:05:44.472Z,23.25
2023-04-11T08:08:11.899Z,25.17
2023-04-11T08:10:39.455Z,21.85
2023-04-11T08:13:06.739Z,27.58
2023-04-11T08:15:36.881Z,28.60
2023-04-11T08:18:05.805Z,35.78
2023-04-11T08:20:33.201Z,25.75
2023-04-11T08:23:05.460Z,28.55
2023-04-11T08:25:33.496Z,36.53
2023-04-11T08:28:01.358Z,28.55
2023-04-11T08:30:28.616Z,40.45
2023-04-11T08:32:56.283Z,30.33
2023-04-11T08:35:23.656Z,30.20
2023-04-11T08:37:50.902Z,26.00
2023-04-11T08:40:18.551Z,33.03
2023-04-11T08:42:46.187Z,19.52
2023-04-11T08:45:13.474Z,16.70
2023-04-11T08:47:42.573Z,17.35
2023-04-11T08:50:12.100Z,19.65
2023-04-11T08:52:39.699Z,20.40
2023-04-11T08:55:07.542Z,19.85
2023-04-11T08:57:34.963Z,17.02
2023-04-11T09:00:14.946Z,16.65
2023-04-11T09:03:02.374Z,18.40
2023-04-11T09:05:40.472Z,13.85
2023-04-11T09:08:12.709Z,13.93
2023-04-11T09:10:41.663Z,14.50
2023-04-11T09:13:20.944Z,17.95
2023-04-11T09:15:48.510Z,18.40
2023-04-11T09:18:36.938Z,39.53
2023-04-11T09:21:06.690Z,27.52
2023-04-11T09:23:35.234Z,18.00
2023-04-11T09:26:02.740Z,20.92
2023-04-11T09:28:39.929Z,21.35
2023-04-11T09:31:07.796Z,24.60
2023-04-11T09:33:35.035Z,19.83
2023-04-11T09:36:18.163Z,21.73
2023-04-11T09:38:45.642Z,18.75
2023-04-11T09:41:12.958Z,24.70
2023-04-11T09:43:55.498Z,64.87
2023-04-11T09:46:23.815Z,51.17
2023-04-11T09:48:54.998Z,26.55
2023-04-11T09:51:34.338Z,24.67
2023-04-11T09:54:03.966Z,24.45
2023-04-11T09:56:31.795Z,24.10
2023-04-11T09:59:00.287Z,23.23
2023-04-11T10:01:28.180Z,26.23
2023-04-11T10:03:56.732Z,25.70
2023-04-11T10:06:34.360Z,24.12
2023-04-11T10:09:11.073Z,25.27
2023-04-11T10:11:43.185Z,33.22
2023-04-11T10:14:38.494Z,23.08
2023-04-11T10:17:22.682Z,24.52
2023-04-11T10:19:56.703Z,24.48
2023-04-11T10:22:50.712Z,25.90
2023-04-11T10:25:19.861Z,30.30
2023-04-11T10:27:50.673Z,25.88
2023-04-11T10:30:18.205Z,26.20
2023-04-11T10:33:14.740Z,30.25
2023-04-11T10:36:06.151Z,20.95
2023-04-11T10:38:48.862Z,23.60
2023-04-11T10:41:22.836Z,19.92
2023-04-11T10:43:50.646Z,21.70
2023-04-11T10:46:23.421Z,23.33
2023-04-11T10:49:00.981Z,19.85
2023-04-11T10:51:30.002Z,22.15
2023-04-11T10:53:59.979Z,25.55
2023-04-11T10:56:42.920Z,20.80
2023-04-11T10:59:32.102Z,22.85
2023-04-11T11:02:02.665Z,15.15
2023-04-11T11:04:37.791Z,17.35
2023-04-11T11:07:07.252Z,49.85
2023-04-11T11:09:35.171Z,16.08
2023-04-11T11:12:12.599Z,13.68
2023-04-11T11:14:41.904Z,16.92
2023-04-11T11:17:09.495Z,14.95
2023-04-11T11:19:36.696Z,14.60
2023-04-11T11:22:04.906Z,17.17
2023-04-11T11:24:32.723Z,11.95
2023-04-11T11:26:59.862Z,12.75
2023-04-11T11:29:45.253Z,13.43
2023-04-11T11:32:21.361Z,13.55
2023-04-11T11:34:48.920Z,13.23
2023-04-11T11:37:16.325Z,15.00
2023-04-11T11:39:43.719Z,14.73
2023-04-11T11:42:11.708Z,12.75
2023-04-11T11:44:38.902Z,10.85
2023-04-11T11:47:06.313Z,12.63
2023-04-11T11:49:54.496Z,12.85
2023-04-11T11:52:32.565Z,17.55
2023-04-11T11:55:01.383Z,12.85
2023-04-11T11:57:28.606Z,16.45
2023-04-11T11:59:56.371Z,14.55
2023-04-11T12:02:25.614Z,16.02
2023-04-11T12:05:00.770Z,19.33
2023-04-11T12:07:32.755Z,20.52
2023-04-11T12:10:08.110Z,15.40
2023-04-11T12:12:36.697Z,15.43
2023-04-11T12:15:17.858Z,15.07
2023-04-11T12:17:57.200Z,14.07
2023-04-11T12:20:26.647Z,20.35
2023-04-11T12:22:55.051Z,16.23
2023-04-11T12:25:22.679Z,16.77
2023-04-11T12:27:50.259Z,15.10
2023-04-11T12:30:17.767Z,13.43
2023-04-11T12:32:45.406Z,14.40
2023-04-11T12:35:13.100Z,13.27
2023-04-11T12:37:40.525Z,12.45
2023-04-11T12:40:12.522Z,10.75
2023-04-11T12:45:11.697Z,10.68
2023-04-11T12:47:39.098Z,10.98
2023-04-11T12:50:07.318Z,11.12
2023-04-11T12:52:34.584Z,8.55
2023-04-11T12:55:01.771Z,7.28
2023-04-11T12:57:29.218Z,8.20
2023-04-11T12:59:56.568Z,7.93
2023-04-11T13:02:23.832Z,6.50
2023-04-11T13:04:54.840Z,8.85
2023-04-11T13:07:22.157Z,10.80
2023-04-11T13:09:49.561Z,16.15
2023-04-11T13:12:17.088Z,8.20
2023-04-11T13:14:44.223Z,8.90
2023-04-11T13:17:11.474Z,11.95
2023-04-11T13:19:38.876Z,8.73
2023-04-11T13:22:06.096Z,10.95
2023-04-11T13:24:33.598Z,8.43
2023-04-11T13:27:00.975Z,8.45
2023-04-11T13:29:28.367Z,8.88
2023-04-11T13:31:55.614Z,16.00
2023-04-11T13:34:23.158Z,16.15
2023-04-11T13:36:51.299Z,8.82
2023-04-11T13:39:18.498Z,8.65
2023-04-11T13:41:46.164Z,7.60
2023-04-11T13:44:13.340Z,8.45
2023-04-11T13:46:40.481Z,7.53
2023-04-11T13:49:07.932Z,9.32
2023-04-11T13:51:35.145Z,13.27
2023-04-11T13:54:02.258Z,9.38
2023-04-11T13:56:32.100Z,9.85
2023-04-11T13:58:59.549Z,9.73
2023-04-11T14:01:26.821Z,6.70
2023-04-11T14:03:54.445Z,7.97
2023-04-11T14:06:22.506Z,7.87
2023-04-11T14:08:50.656Z,26.70
2023-04-11T14:11:18.427Z,11.00
2023-04-11T14:13:45.568Z,9.50
2023-04-11T14:16:12.930Z,7.43
2023-04-11T14:18:40.715Z,7.20
2023-04-11T14:21:08.256Z,9.98
2023-04-11T14:23:35.857Z,6.87
2023-04-11T14:26:03.327Z,19.17
2023-04-11T14:28:30.616Z,10.75
2023-04-11T14:30:57.865Z,9.63
2023-04-11T14:33:25.449Z,11.70
2023-04-11T14:35:52.592Z,13.02
2023-04-11T14:38:19.734Z,7.05
2023-04-11T14:40:47.238Z,11.50
2023-04-11T14:43:14.461Z,9.90
2023-04-11T14:45:41.703Z,8.10
2023-04-11T14:48:09.292Z,10.05
2023-04-11T14:50:36.696Z,14.73
2023-04-11T14:53:03.934Z,11.93
2023-04-11T14:55:31.469Z,15.15
2023-04-11T14:57:58.709Z,10.35
2023-04-11T15:00:26.784Z,10.85
2023-04-11T15:02:56.127Z,12.07
2023-04-11T15:05:24.212Z,9.52
2023-04-11T15:07:52.571Z,8.45
2023-04-11T15:10:22.716Z,8.88
2023-04-11T15:12:50.135Z,10.07
2023-04-11T15:15:17.461Z,10.48
2023-04-11T15:17:50.381Z,11.02
2023-04-11T15:20:17.639Z,10.18
2023-04-11T15:22:46.243Z,14.60
2023-04-11T15:25:15.445Z,15.98
2023-04-11T15:27:42.895Z,15.30
2023-04-11T15:30:11.462Z,15.40
2023-04-11T15:32:42.749Z,16.40
2023-04-11T15:35:10.656Z,15.27
2023-04-11T15:37:37.804Z,13.65
2023-04-11T15:40:06.150Z,14.15
2023-04-11T15:42:35.409Z,17.10
2023-04-11T15:45:03.181Z,14.23
2023-04-11T15:47:31.410Z,14.27
2023-04-11T15:50:01.856Z,19.98
2023-04-11T15:52:28.974Z,15.13
2023-04-11T15:54:56.800Z,16.25
2023-04-11T15:57:24.257Z,17.60
2023-04-11T15:59:51.390Z,15.02
2023-04-11T16:02:18.711Z,18.77
2023-04-11T16:04:47.929Z,14.30
2023-04-11T16:07:19.293Z,14.05
2023-04-11T16:09:46.944Z,16.52
2023-04-11T16:12:14.329Z,14.02
2023-04-11T16:14:41.481Z,13.02
2023-04-11T16:17:08.871Z,16.50
2023-04-11T16:19:36.059Z,18.75
2023-04-11T16:22:03.242Z,14.68
2023-04-11T16:24:31.136Z,11.12
2023-04-11T16:26:58.376Z,10.75
2023-04-11T16:29:25.655Z,13.35
2023-04-11T16:31:53.033Z,12.32
2023-04-11T16:34:20.201Z,18.62
2023-04-11T16:36:47.410Z,13.65
2023-04-11T16:39:14.876Z,12.43
2023-04-11T16:41:42.000Z,16.70
2023-04-11T16:44:11.729Z,16.05
2023-04-11T16:46:42.743Z,27.42
2023-04-11T16:49:10.092Z,21.52
2023-04-11T16:51:37.733Z,23.35
2023-04-11T16:54:09.688Z,22.37
2023-04-11T16:56:37.480Z,20.23
2023-04-11T16:59:05.253Z,34.92
2023-04-11T17:01:32.459Z,34.15
2023-04-11T17:04:01.280Z,29.75
2023-04-11T17:06:29.201Z,14.10
2023-04-11T17:08:57.662Z,11.80
2023-04-11T17:11:25.207Z,12.20
2023-04-11T17:13:54.469Z,12.30
2023-04-11T17:16:22.173Z,13.25
2023-04-11T17:18:49.374Z,15.02
2023-04-11T17:21:17.161Z,12.75
2023-04-11T17:23:44.766Z,16.70
2023-04-11T17:26:12.372Z,13.57
2023-04-11T17:28:40.817Z,14.98
2023-04-11T17:31:16.173Z,14.38
2023-04-11T17:33:43.874Z,15.82
2023-04-11T17:36:11.568Z,17.45
2023-04-11T17:38:39.242Z,17.67
2023-04-11T17:41:14.403Z,19.10
2023-04-11T17:43:42.302Z,22.08
2023-04-11T17:46:09.959Z,23.83
2023-04-11T17:48:37.318Z,21.80
2023-04-11T17:51:07.942Z,24.75
2023-04-11T17:53:35.925Z,27.15
2023-04-11T17:56:07.744Z,17.12
2023-04-11T17:58:35.426Z,14.52
2023-04-11T18:01:05.553Z,11.50
2023-04-11T18:03:35.137Z,13.00
2023-04-11T18:06:03.071Z,12.00
2023-04-11T18:08:39.209Z,9.50
2023-04-11T18:11:11.298Z,9.98
2023-04-11T18:13:38.427Z,10.60
2023-04-11T18:16:05.782Z,13.82
2023-04-11T18:18:33.289Z,10.32
2023-04-11T18:21:07.055Z,7.85
2023-04-11T18:23:35.257Z,9.45
2023-04-11T18:26:02.632Z,8.43
2023-04-11T18:28:30.178Z,9.82
2023-04-11T18:30:57.960Z,11.43
2023-04-11T18:33:26.242Z,21.45
2023-04-11T18:35:56.094Z,11.10
2023-04-11T18:38:23.762Z,8.32
2023-04-11T18:40:55.046Z,6.87
2023-04-11T18:43:23.867Z,9.88
2023-04-11T18:45:51.790Z,7.18
2023-04-11T18:48:19.693Z,7.97
2023-04-11T18:50:48.571Z,6.65
2023-04-11T18:53:20.696Z,7.07
2023-04-11T18:55:48.067Z,7.82
2023-04-11T18:58:18.677Z,10.32
2023-04-11T19:00:49.675Z,9.15
2023-04-11T19:03:17.977Z,11.60
2023-04-11T19:05:48.234Z,12.52
2023-04-11T19:08:15.542Z,8.68
2023-04-11T19:10:43.000Z,9.85
2023-04-11T19:13:10.374Z,8.07
2023-04-11T19:15:40.838Z,9.02
2023-04-11T19:18:08.949Z,9.75
2023-04-11T19:20:37.219Z,8.80
2023-04-11T19:23:06.684Z,8.38
2023-04-11T19:25:34.702Z,9.38
2023-04-11T19:28:03.606Z,14.68
2023-04-11T19:30:30.997Z,30.42
2023-04-11T19:32:58.878Z,30.88
2023-04-11T19:35:26.229Z,28.48
2023-04-11T19:37:53.712Z,26.15
2023-04-11T19:40:23.504Z,16.10
2023-04-11T19:42:51.626Z,9.10
2023-04-11T19:45:19.351Z,7.47
2023-04-11T19:47:49.035Z,9.55
2023-04-11T19:50:16.396Z,8.05
2023-04-11T19:52:44.154Z,6.68
2023-04-11T19:55:12.338Z,8.23
2023-04-11T19:57:40.955Z,8.27
2023-04-11T20:00:13.797Z,6.82
2023-04-11T20:02:46.771Z,8.48
2023-04-11T20:05:16.219Z,8.70
2023-04-11T20:07:44.450Z,9.50
2023-04-11T20:10:12.583Z,8.07
2023-04-11T20:12:39.872Z,6.75
2023-04-11T20:15:08.250Z,8.52
2023-04-11T20:17:35.751Z,6.35
2023-04-11T20:20:06.457Z,9.23
2023-04-11T20:22:34.411Z,7.10
2023-04-11T20:25:01.587Z,5.75
2023-04-11T20:27:28.845Z,6.32
2023-04-11T20:29:56.814Z,6.43
2023-04-11T20:32:24.075Z,4.57
2023-04-11T20:34:51.340Z,6.87
2023-04-11T20:37:19.541Z,3.50
2023-04-11T20:39:46.761Z,3.75
2023-04-11T20:42:13.876Z,4.22
2023-04-11T20:44:41.779Z,2.92
2023-04-11T20:47:09.170Z,2.58
2023-04-11T20:49:36.315Z,3.00
2023-04-11T20:52:03.848Z,3.12
2023-04-11T20:54:31.011Z,4.43
2023-04-11T20:56:58.133Z,2.87
2023-04-11T20:59:26.373Z,5.18
2023-04-11T21:01:53.814Z,5.28
2023-04-11T21:04:22.112Z,3.92
2023-04-11T21:06:50.023Z,4.68
2023-04-11T21:09:17.648Z,5.45
2023-04-11T21:11:44.803Z,5.25
2023-04-11T21:14:12.261Z,4.12
2023-04-11T21:16:39.875Z,5.07
2023-04-11T21:19:06.986Z,4.22
2023-04-11T21:21:34.465Z,6.10
2023-04-11T21:24:01.948Z,7.60
2023-04-11T21:26:29.108Z,6.95
2023-04-11T21:28:56.548Z,6.55
2023-04-11T21:31:23.724Z,5.70
2023-04-11T21:33:51.672Z,5.70
2023-04-11T21:36:19.143Z,5.82
2023-04-11T21:38:46.298Z,5.85
2023-04-11T21:41:13.449Z,3.95
2023-04-11T21:43:41.071Z,4.78
2023-04-11T21:46:08.214Z,6.32
2023-04-11T21:48:35.503Z,4.05
2023-04-11T21:51:03.807Z,4.10
2023-04-11T21:53:30.954Z,4.03
2023-04-11T21:55:58.082Z,3.83
2023-04-11T21:58:29.642Z,4.30
2023-04-11T22:00:57.215Z,3.78
2023-04-11T22:03:25.175Z,3.65
2023-04-11T22:05:53.281Z,5.03
2023-04-11T22:08:22.649Z,4.65
2023-04-11T22:10:50.816Z,4.65
2023-04-11T22:13:19.428Z,5.97
2023-04-11T22:15:48.775Z,3.62
2023-04-11T22:18:16.321Z,4.57
2023-04-11T22:20:44.153Z,3.70
2023-04-11T22:23:12.928Z,4.75
2023-04-11T22:25:42.283Z,3.62
2023-04-11T22:28:20.431Z,3.25
2023-04-11T22:30:47.867Z,3.08
2023-04-11T22:33:15.453Z,3.83
2023-04-11T22:35:47.683Z,2.83
2023-04-11T22:38:15.944Z,3.30
2023-04-11T22:40:43.144Z,4.37
2023-04-11T22:43:10.690Z,2.47
2023-04-11T22:45:38.227Z,2.85
2023-04-11T22:48:06.265Z,3.97
2023-04-11T22:50:37.979Z,2.90
2023-04-11T22:53:05.912Z,3.45
2023-04-11T22:55:34.379Z,2.28
2023-04-11T22:58:02.236Z,2.50
2023-04-11T23:00:30.012Z,3.17
2023-04-11T23:02:59.553Z,2.70
2023-04-11T23:05:26.989Z,4.30
2023-04-11T23:07:54.470Z,2.53
2023-04-11T23:10:21.682Z,4.18
2023-04-11T23:12:49.529Z,2.83
2023-04-11T23:15:17.490Z,5.97
2023-04-11T23:17:44.978Z,3.90
2023-04-11T23:20:13.478Z,4.20
2023-04-11T23:22:43.772Z,2.80
2023-04-11T23:25:11.926Z,2.58
2023-04-11T23:27:39.552Z,3.45
2023-04-11T23:30:07.781Z,3.97
2023-04-11T23:32:35.023Z,2.08
2023-04-11T23:35:04.539Z,4.15
2023-04-11T23:37:32.107Z,3.97
2023-04-11T23:39:59.766Z,4.55
2023-04-11T23:42:26.890Z,2.40
2023-04-11T23:44:54.399Z,3.33
2023-04-11T23:47:21.654Z,2.65
2023-04-11T23:49:48.755Z,3.50
2023-04-11T23:52:16.195Z,3.45
2023-04-11T23:54:43.654Z,2.47
2023-04-11T23:57:11.846Z,2.42
2023-04-11T23:59:39.410Z,3.03
